Casville, North Carolina
Current Conditions -  °F | °C
As of 10:53 AM on Thursday 23 Oct 2014 (Local Time) from KDAN Reporting Station
Clear Clear  
Wind Chill: 60°   Ceiling: Unl
Heat Index: 60°   Visibility: 10mi
Dew Point: 40°   Wind: 14mph
Humidity: 47%   Direction: 310°NW
Pressure: 30.04"   Gusts: NA
Location:  36.4355°N, 79.5464°W
Report Text: KDAN 231453Z AUTO 31012KT 10SM CLR 16/04 A3004 RMK AO2 SLP167 T01560044 53004
Loading
Personal Weather Stations






























Interactive Weather Map
Tropical Storm Tracking
New forecast layout! Learn more

10-Day Weather Forecast

Advertisements
Track Severe Weather on mobile